Apollo Beach, Florida
Current Conditions -  °F | °C
As of 5:21 AM on Monday 26 Jan 2015 (Local Time) from KMCF Reporting Station
Moderate Rain Moderate Rain  
Wind Chill: 61°   Ceiling: 3300
Heat Index: 61°   Visibility: 5mi
Dew Point: 61°   Wind: 10mph
Humidity: 100%   Direction: 300°WNW
Pressure: 29.87"   Gusts: 33mph
Location:  27.77°N, 82.39°W
Report Text: KMCF 261021Z AUTO 30009G29KT 270V330 5SM RA BR FEW015 SCT025 OVC033 16/16 A2987 RMK AO2
Loading
Personal Weather Stations






























Interactive Weather Map New forecast layout! Learn more

10-Day Weather Forecast

Advertisements
Track Severe Weather on mobile